sensor_id;sensor_type;location;lat;lon;timestamp;temperature;humidity
2721;DHT22;1368;49.484;11.112;2023-07-20T00:00:39;20.50;99.90
2721;DHT22;1368;49.484;11.112;2023-07-20T00:03:12;20.30;99.90
2721;DHT22;1368;49.484;11.112;2023-07-20T00:05:43;20.30;99.90
2721;DHT22;1368;49.484;11.112;2023-07-20T00:08:09;20.40;99.90
2721;DHT22;1368;49.484;11.112;2023-07-20T00:10:34;20.50;99.90
2721;DHT22;1368;49.484;11.112;2023-07-20T00:13:00;20.40;99.90
2721;DHT22;1368;49.484;11.112;2023-07-20T00:15:25;20.40;99.90
2721;DHT22;1368;49.484;11.112;2023-07-20T00:17:51;20.30;99.90
2721;DHT22;1368;49.484;11.112;2023-07-20T00:20:17;20.50;99.90
2721;DHT22;1368;49.484;11.112;2023-07-20T00:22:43;20.40;99.90
2721;DHT22;1368;49.484;11.112;2023-07-20T00:25:09;20.30;99.90
2721;DHT22;1368;49.484;11.112;2023-07-20T00:27:37;20.30;99.90
2721;DHT22;1368;49.484;11.112;2023-07-20T00:30:04;20.50;99.90
2721;DHT22;1368;49.484;11.112;2023-07-20T00:32:29;20.30;99.90
2721;DHT22;1368;49.484;11.112;2023-07-20T00:34:55;20.40;99.90
2721;DHT22;1368;49.484;11.112;2023-07-20T00:37:20;20.30;99.90
2721;DHT22;1368;49.484;11.112;2023-07-20T00:39:46;20.30;99.90
2721;DHT22;1368;49.484;11.112;2023-07-20T00:42:12;20.30;99.90
2721;DHT22;1368;49.484;11.112;2023-07-20T00:44:37;20.40;99.90
2721;DHT22;1368;49.484;11.112;2023-07-20T00:47:03;20.20;99.90
2721;DHT22;1368;49.484;11.112;2023-07-20T00:49:29;19.90;99.90
2721;DHT22;1368;49.484;11.112;2023-07-20T00:51:55;19.40;99.90
2721;DHT22;1368;49.484;11.112;2023-07-20T00:54:20;19.30;99.90
2721;DHT22;1368;49.484;11.112;2023-07-20T00:56:46;19.50;99.90
2721;DHT22;1368;49.484;11.112;2023-07-20T00:59:13;19.60;99.90
2721;DHT22;1368;49.484;11.112;2023-07-20T01:01:38;19.60;99.90
2721;DHT22;1368;49.484;11.112;2023-07-20T01:04:04;19.60;99.90
2721;DHT22;1368;49.484;11.112;2023-07-20T01:06:47;20.30;99.90
2721;DHT22;1368;49.484;11.112;2023-07-20T01:09:37;19.70;99.90
2721;DHT22;1368;49.484;11.112;2023-07-20T01:12:52;19.80;99.90
2721;DHT22;1368;49.484;11.112;2023-07-20T01:14:59;19.80;99.90
2721;DHT22;1368;49.484;11.112;2023-07-20T01:17:25;19.80;99.90
2721;DHT22;1368;49.484;11.112;2023-07-20T01:19:50;19.90;99.90
2721;DHT22;1368;49.484;11.112;2023-07-20T01:22:21;20.30;99.90
2721;DHT22;1368;49.484;11.112;2023-07-20T01:25:24;20.30;99.90
2721;DHT22;1368;49.484;11.112;2023-07-20T01:33:05;20.40;99.90
2721;DHT22;1368;49.484;11.112;2023-07-20T01:35:33;19.80;99.90
2721;DHT22;1368;49.484;11.112;2023-07-20T01:38:00;19.40;99.90
2721;DHT22;1368;49.484;11.112;2023-07-20T01:40:27;19.40;99.90
2721;DHT22;1368;49.484;11.112;2023-07-20T01:42:53;19.50;99.90
2721;DHT22;1368;49.484;11.112;2023-07-20T01:45:19;19.60;99.90
2721;DHT22;1368;49.484;11.112;2023-07-20T01:47:44;19.40;99.90
2721;DHT22;1368;49.484;11.112;2023-07-20T01:50:10;19.30;99.90
2721;DHT22;1368;49.484;11.112;2023-07-20T01:52:36;19.10;99.90
2721;DHT22;1368;49.484;11.112;2023-07-20T01:55:01;19.50;99.90
2721;DHT22;1368;49.484;11.112;2023-07-20T01:57:27;19.10;99.90
2721;DHT22;1368;49.484;11.112;2023-07-20T01:59:53;19.50;99.90
2721;DHT22;1368;49.484;11.112;2023-07-20T02:02:18;19.10;99.90
2721;DHT22;1368;49.484;11.112;2023-07-20T02:04:45;19.10;99.90
2721;DHT22;1368;49.484;11.112;2023-07-20T02:07:11;18.90;99.90
2721;DHT22;1368;49.484;11.112;2023-07-20T02:09:37;19.00;99.90
2721;DHT22;1368;49.484;11.112;2023-07-20T02:12:02;19.10;99.90
2721;DHT22;1368;49.484;11.112;2023-07-20T02:14:28;19.10;99.90
2721;DHT22;1368;49.484;11.112;2023-07-20T02:16:53;19.20;99.90
2721;DHT22;1368;49.484;11.112;2023-07-20T02:19:25;19.20;99.90
2721;DHT22;1368;49.484;11.112;2023-07-20T02:21:51;19.80;99.90
2721;DHT22;1368;49.484;11.112;2023-07-20T02:24:17;19.40;99.90
2721;DHT22;1368;49.484;11.112;2023-07-20T02:26:42;19.40;99.90
2721;DHT22;1368;49.484;11.112;2023-07-20T02:29:09;19.50;99.90
2721;DHT22;1368;49.484;11.112;2023-07-20T02:31:37;19.60;99.90
2721;DHT22;1368;49.484;11.112;2023-07-20T02:34:05;19.60;99.90
2721;DHT22;1368;49.484;11.112;2023-07-20T02:36:30;19.60;99.90
2721;DHT22;1368;49.484;11.112;2023-07-20T02:38:58;19.60;99.90
2721;DHT22;1368;49.484;11.112;2023-07-20T02:41:24;19.60;99.90
2721;DHT22;1368;49.484;11.112;2023-07-20T02:43:49;19.70;99.90
2721;DHT22;1368;49.484;11.112;2023-07-20T02:46:15;19.70;99.90
2721;DHT22;1368;49.484;11.112;2023-07-20T02:48:40;19.90;99.90
2721;DHT22;1368;49.484;11.112;2023-07-20T02:51:06;19.90;99.90
2721;DHT22;1368;49.484;11.112;2023-07-20T02:53:33;20.00;99.90
2721;DHT22;1368;49.484;11.112;2023-07-20T02:55:58;20.40;99.90
2721;DHT22;1368;49.484;11.112;2023-07-20T02:58:24;20.10;99.90
2721;DHT22;1368;49.484;11.112;2023-07-20T03:00:50;20.20;99.90
2721;DHT22;1368;49.484;11.112;2023-07-20T03:03:15;20.20;99.90
2721;DHT22;1368;49.484;11.112;2023-07-20T03:05:41;20.10;99.90
2721;DHT22;1368;49.484;11.112;2023-07-20T03:08:07;20.10;99.90
2721;DHT22;1368;49.484;11.112;2023-07-20T03:10:37;20.00;99.90
2721;DHT22;1368;49.484;11.112;2023-07-20T03:13:03;20.00;99.90
2721;DHT22;1368;49.484;11.112;2023-07-20T03:15:29;19.90;99.90
2721;DHT22;1368;49.484;11.112;2023-07-20T03:17:54;19.70;99.90
2721;DHT22;1368;49.484;11.112;2023-07-20T03:20:20;20.40;99.90
2721;DHT22;1368;49.484;11.112;2023-07-20T03:22:46;19.80;99.90
2721;DHT22;1368;49.484;11.112;2023-07-20T03:25:11;19.60;99.90
2721;DHT22;1368;49.484;11.112;2023-07-20T03:27:37;19.50;99.90
2721;DHT22;1368;49.484;11.112;2023-07-20T03:30:03;19.50;99.90
2721;DHT22;1368;49.484;11.112;2023-07-20T03:32:28;19.50;99.90
2721;DHT22;1368;49.484;11.112;2023-07-20T03:34:54;19.80;99.90
2721;DHT22;1368;49.484;11.112;2023-07-20T03:37:19;19.60;99.90
2721;DHT22;1368;49.484;11.112;2023-07-20T03:39:45;19.90;99.90
2721;DHT22;1368;49.484;11.112;2023-07-20T03:42:10;19.70;99.90
2721;DHT22;1368;49.484;11.112;2023-07-20T03:44:36;19.70;99.90
2721;DHT22;1368;49.484;11.112;2023-07-20T03:47:03;19.70;99.90
2721;DHT22;1368;49.484;11.112;2023-07-20T03:49:30;19.70;99.90
2721;DHT22;1368;49.484;11.112;2023-07-20T03:51:55;19.70;99.90
2721;DHT22;1368;49.484;11.112;2023-07-20T03:54:21;19.70;99.90
2721;DHT22;1368;49.484;11.112;2023-07-20T03:56:46;19.80;99.90
2721;DHT22;1368;49.484;11.112;2023-07-20T03:59:12;19.90;99.90
2721;DHT22;1368;49.484;11.112;2023-07-20T04:01:37;20.10;99.90
2721;DHT22;1368;49.484;11.112;2023-07-20T04:04:07;20.00;99.90
2721;DHT22;1368;49.484;11.112;2023-07-20T04:06:34;20.10;99.90
2721;DHT22;1368;49.484;11.112;2023-07-20T04:08:59;20.60;99.90
2721;DHT22;1368;49.484;11.112;2023-07-20T04:11:25;20.20;99.90
2721;DHT22;1368;49.484;11.112;2023-07-20T04:13:50;20.40;99.90
2721;DHT22;1368;49.484;11.112;2023-07-20T04:16:16;20.40;99.90
2721;DHT22;1368;49.484;11.112;2023-07-20T04:18:42;20.60;99.90
2721;DHT22;1368;49.484;11.112;2023-07-20T04:21:08;20.60;99.90
2721;DHT22;1368;49.484;11.112;2023-07-20T04:23:34;20.60;99.90
2721;DHT22;1368;49.484;11.112;2023-07-20T04:26:01;20.60;99.90
2721;DHT22;1368;49.484;11.112;2023-07-20T04:28:27;20.60;99.90
2721;DHT22;1368;49.484;11.112;2023-07-20T04:30:52;20.70;99.90
2721;DHT22;1368;49.484;11.112;2023-07-20T04:33:18;20.80;99.90
2721;DHT22;1368;49.484;11.112;2023-07-20T04:35:48;20.90;99.90
2721;DHT22;1368;49.484;11.112;2023-07-20T04:38:14;21.50;99.90
2721;DHT22;1368;49.484;11.112;2023-07-20T04:40:47;21.10;99.90
2721;DHT22;1368;49.484;11.112;2023-07-20T04:43:13;21.40;99.90
2721;DHT22;1368;49.484;11.112;2023-07-20T04:45:41;21.70;99.90
2721;DHT22;1368;49.484;11.112;2023-07-20T04:48:10;21.90;99.90
2721;DHT22;1368;49.484;11.112;2023-07-20T04:50:37;22.30;99.90
2721;DHT22;1368;49.484;11.112;2023-07-20T04:53:03;22.70;99.90
2721;DHT22;1368;49.484;11.112;2023-07-20T04:55:29;23.00;99.90
2721;DHT22;1368;49.484;11.112;2023-07-20T04:57:55;23.00;99.90
2721;DHT22;1368;49.484;11.112;2023-07-20T05:00:21;23.10;99.90
2721;DHT22;1368;49.484;11.112;2023-07-20T05:02:47;23.20;99.90
2721;DHT22;1368;49.484;11.112;2023-07-20T05:05:15;23.20;99.90
2721;DHT22;1368;49.484;11.112;2023-07-20T05:07:41;23.60;99.90
2721;DHT22;1368;49.484;11.112;2023-07-20T05:10:07;23.80;99.90
2721;DHT22;1368;49.484;11.112;2023-07-20T05:12:33;24.40;99.90
2721;DHT22;1368;49.484;11.112;2023-07-20T05:15:00;25.30;99.90
2721;DHT22;1368;49.484;11.112;2023-07-20T05:17:25;26.20;99.90
2721;DHT22;1368;49.484;11.112;2023-07-20T05:19:51;26.60;99.90
2721;DHT22;1368;49.484;11.112;2023-07-20T05:22:16;27.00;99.90
2721;DHT22;1368;49.484;11.112;2023-07-20T05:24:42;26.80;99.90
2721;DHT22;1368;49.484;11.112;2023-07-20T05:27:08;26.20;99.90
2721;DHT22;1368;49.484;11.112;2023-07-20T05:29:34;25.80;99.90
2721;DHT22;1368;49.484;11.112;2023-07-20T05:31:59;25.40;99.90
2721;DHT22;1368;49.484;11.112;2023-07-20T05:34:25;24.50;99.90
2721;DHT22;1368;49.484;11.112;2023-07-20T05:36:50;24.20;99.90
2721;DHT22;1368;49.484;11.112;2023-07-20T05:39:17;23.90;99.90
2721;DHT22;1368;49.484;11.112;2023-07-20T05:41:43;23.70;99.90
2721;DHT22;1368;49.484;11.112;2023-07-20T05:44:08;23.90;99.90
2721;DHT22;1368;49.484;11.112;2023-07-20T05:46:34;24.80;99.90
2721;DHT22;1368;49.484;11.112;2023-07-20T05:48:59;25.80;99.90
2721;DHT22;1368;49.484;11.112;2023-07-20T05:51:25;26.70;99.90
2721;DHT22;1368;49.484;11.112;2023-07-20T05:53:51;27.50;99.90
2721;DHT22;1368;49.484;11.112;2023-07-20T05:56:16;27.40;99.90
2721;DHT22;1368;49.484;11.112;2023-07-20T05:58:42;27.00;99.90
2721;DHT22;1368;49.484;11.112;2023-07-20T06:01:08;26.80;99.90
2721;DHT22;1368;49.484;11.112;2023-07-20T06:03:33;26.70;99.90
2721;DHT22;1368;49.484;11.112;2023-07-20T06:06:03;26.90;99.90
2721;DHT22;1368;49.484;11.112;2023-07-20T06:08:30;26.70;99.90
2721;DHT22;1368;49.484;11.112;2023-07-20T06:10:56;27.50;99.90
2721;DHT22;1368;49.484;11.112;2023-07-20T06:13:21;27.70;99.90
2721;DHT22;1368;49.484;11.112;2023-07-20T06:15:47;28.40;99.90
2721;DHT22;1368;49.484;11.112;2023-07-20T06:18:13;28.70;99.90
2721;DHT22;1368;49.484;11.112;2023-07-20T06:20:39;29.20;99.90
2721;DHT22;1368;49.484;11.112;2023-07-20T06:23:04;29.60;98.90
2721;DHT22;1368;49.484;11.112;2023-07-20T06:25:30;29.60;98.80
2721;DHT22;1368;49.484;11.112;2023-07-20T06:27:56;30.20;98.60
2721;DHT22;1368;49.484;11.112;2023-07-20T06:30:21;30.80;97.00
2721;DHT22;1368;49.484;11.112;2023-07-20T06:32:47;31.40;95.90
2721;DHT22;1368;49.484;11.112;2023-07-20T06:35:13;32.10;94.40
2721;DHT22;1368;49.484;11.112;2023-07-20T06:37:39;32.60;92.90
2721;DHT22;1368;49.484;11.112;2023-07-20T06:40:05;32.50;91.80
2721;DHT22;1368;49.484;11.112;2023-07-20T06:42:31;32.80;90.20
2721;DHT22;1368;49.484;11.112;2023-07-20T06:45:01;33.00;90.10
2721;DHT22;1368;49.484;11.112;2023-07-20T06:47:26;33.20;90.10
2721;DHT22;1368;49.484;11.112;2023-07-20T06:49:52;33.30;86.40
2721;DHT22;1368;49.484;11.112;2023-07-20T06:52:18;33.40;85.40
2721;DHT22;1368;49.484;11.112;2023-07-20T06:54:43;33.90;83.50
2721;DHT22;1368;49.484;11.112;2023-07-20T06:57:09;34.30;84.10
2721;DHT22;1368;49.484;11.112;2023-07-20T06:59:34;34.20;81.20
2721;DHT22;1368;49.484;11.112;2023-07-20T07:02:00;33.70;80.70
2721;DHT22;1368;49.484;11.112;2023-07-20T07:04:25;32.80;81.30
2721;DHT22;1368;49.484;11.112;2023-07-20T07:06:51;32.40;81.50
2721;DHT22;1368;49.484;11.112;2023-07-20T07:09:17;32.70;82.90
2721;DHT22;1368;49.484;11.112;2023-07-20T07:11:43;32.60;79.60
2721;DHT22;1368;49.484;11.112;2023-07-20T07:14:08;32.10;78.10
2721;DHT22;1368;49.484;11.112;2023-07-20T07:16:34;31.30;80.40
2721;DHT22;1368;49.484;11.112;2023-07-20T07:18:59;30.90;82.10
2721;DHT22;1368;49.484;11.112;2023-07-20T07:21:25;30.60;81.70
2721;DHT22;1368;49.484;11.112;2023-07-20T07:23:51;31.00;81.30
2721;DHT22;1368;49.484;11.112;2023-07-20T07:26:18;31.40;79.70
2721;DHT22;1368;49.484;11.112;2023-07-20T07:28:44;31.30;77.60
2721;DHT22;1368;49.484;11.112;2023-07-20T07:31:10;30.80;80.20
2721;DHT22;1368;49.484;11.112;2023-07-20T07:33:35;30.70;81.90
2721;DHT22;1368;49.484;11.112;2023-07-20T07:36:01;31.30;79.20
2721;DHT22;1368;49.484;11.112;2023-07-20T07:38:26;32.40;76.00
2721;DHT22;1368;49.484;11.112;2023-07-20T07:40:52;33.40;75.40
2721;DHT22;1368;49.484;11.112;2023-07-20T07:43:18;34.40;73.10
2721;DHT22;1368;49.484;11.112;2023-07-20T07:45:43;34.50;67.00
2721;DHT22;1368;49.484;11.112;2023-07-20T07:48:09;34.60;68.80
2721;DHT22;1368;49.484;11.112;2023-07-20T07:50:38;33.90;68.20
2721;DHT22;1368;49.484;11.112;2023-07-20T07:53:05;33.90;68.90
2721;DHT22;1368;49.484;11.112;2023-07-20T07:55:31;34.10;66.80
2721;DHT22;1368;49.484;11.112;2023-07-20T07:57:56;34.00;66.30
2721;DHT22;1368;49.484;11.112;2023-07-20T08:00:22;33.90;67.00
2721;DHT22;1368;49.484;11.112;2023-07-20T08:02:49;34.30;66.60
2721;DHT22;1368;49.484;11.112;2023-07-20T08:05:15;35.10;62.70
2721;DHT22;1368;49.484;11.112;2023-07-20T08:07:41;35.30;61.20
2721;DHT22;1368;49.484;11.112;2023-07-20T08:10:07;35.20;62.80
2721;DHT22;1368;49.484;11.112;2023-07-20T08:12:33;34.60;62.70
2721;DHT22;1368;49.484;11.112;2023-07-20T08:14:58;33.60;62.80
2721;DHT22;1368;49.484;11.112;2023-07-20T08:17:24;33.80;63.80
2721;DHT22;1368;49.484;11.112;2023-07-20T08:19:49;33.90;63.50
2721;DHT22;1368;49.484;11.112;2023-07-20T08:22:15;33.60;62.60
2721;DHT22;1368;49.484;11.112;2023-07-20T08:24:41;34.00;62.40
2721;DHT22;1368;49.484;11.112;2023-07-20T08:27:08;34.60;63.10
2721;DHT22;1368;49.484;11.112;2023-07-20T08:29:34;35.20;59.70
2721;DHT22;1368;49.484;11.112;2023-07-20T08:31:59;34.50;60.00
2721;DHT22;1368;49.484;11.112;2023-07-20T08:34:25;34.30;61.80
2721;DHT22;1368;49.484;11.112;2023-07-20T08:36:50;34.30;61.40
2721;DHT22;1368;49.484;11.112;2023-07-20T08:39:16;34.30;59.20
2721;DHT22;1368;49.484;11.112;2023-07-20T08:41:46;34.50;60.00
2721;DHT22;1368;49.484;11.112;2023-07-20T08:44:11;34.90;59.80
2721;DHT22;1368;49.484;11.112;2023-07-20T08:46:38;34.90;58.80
2721;DHT22;1368;49.484;11.112;2023-07-20T08:49:04;34.20;59.30
2721;DHT22;1368;49.484;11.112;2023-07-20T08:51:30;34.30;59.10
2721;DHT22;1368;49.484;11.112;2023-07-20T08:53:57;35.00;59.40
2721;DHT22;1368;49.484;11.112;2023-07-20T08:56:24;35.30;57.90
2721;DHT22;1368;49.484;11.112;2023-07-20T08:58:52;34.90;56.60
2721;DHT22;1368;49.484;11.112;2023-07-20T09:01:19;34.50;59.10
2721;DHT22;1368;49.484;11.112;2023-07-20T09:03:46;34.10;58.10
2721;DHT22;1368;49.484;11.112;2023-07-20T09:06:12;33.40;57.60
2721;DHT22;1368;49.484;11.112;2023-07-20T09:08:39;33.30;60.40
2721;DHT22;1368;49.484;11.112;2023-07-20T09:11:05;33.80;57.50
2721;DHT22;1368;49.484;11.112;2023-07-20T09:13:32;33.80;57.50
2721;DHT22;1368;49.484;11.112;2023-07-20T09:15:58;34.20;57.30
2721;DHT22;1368;49.484;11.112;2023-07-20T09:18:25;34.90;56.80
2721;DHT22;1368;49.484;11.112;2023-07-20T09:20:51;35.20;54.70
2721;DHT22;1368;49.484;11.112;2023-07-20T09:23:16;35.00;55.30
2721;DHT22;1368;49.484;11.112;2023-07-20T09:25:42;35.20;54.40
2721;DHT22;1368;49.484;11.112;2023-07-20T09:28:08;34.90;56.50
2721;DHT22;1368;49.484;11.112;2023-07-20T09:30:33;34.80;54.60
2721;DHT22;1368;49.484;11.112;2023-07-20T09:32:59;34.90;55.00
2721;DHT22;1368;49.484;11.112;2023-07-20T09:35:25;35.70;52.10
2721;DHT22;1368;49.484;11.112;2023-07-20T09:37:57;35.90;54.10
2721;DHT22;1368;49.484;11.112;2023-07-20T09:40:24;35.50;52.80
2721;DHT22;1368;49.484;11.112;2023-07-20T09:42:52;36.50;52.20
2721;DHT22;1368;49.484;11.112;2023-07-20T09:45:17;36.60;50.40
2721;DHT22;1368;49.484;11.112;2023-07-20T09:47:43;36.10;51.50
2721;DHT22;1368;49.484;11.112;2023-07-20T09:50:09;35.50;51.70
2721;DHT22;1368;49.484;11.112;2023-07-20T09:52:38;34.70;52.30
2721;DHT22;1368;49.484;11.112;2023-07-20T09:55:06;33.70;52.30
2721;DHT22;1368;49.484;11.112;2023-07-20T09:57:33;32.80;53.70
2721;DHT22;1368;49.484;11.112;2023-07-20T09:59:59;32.70;53.90
2721;DHT22;1368;49.484;11.112;2023-07-20T10:02:33;32.30;53.60
2721;DHT22;1368;49.484;11.112;2023-07-20T10:05:02;32.00;55.10
2721;DHT22;1368;49.484;11.112;2023-07-20T10:07:30;32.20;55.70
2721;DHT22;1368;49.484;11.112;2023-07-20T10:09:56;32.70;54.20
2721;DHT22;1368;49.484;11.112;2023-07-20T10:12:25;32.90;52.30
2721;DHT22;1368;49.484;11.112;2023-07-20T10:15:18;33.50;53.00
2721;DHT22;1368;49.484;11.112;2023-07-20T10:17:56;34.00;51.70
2721;DHT22;1368;49.484;11.112;2023-07-20T10:20:23;34.10;50.40
2721;DHT22;1368;49.484;11.112;2023-07-20T10:22:53;34.60;51.70
2721;DHT22;1368;49.484;11.112;2023-07-20T10:25:21;34.70;48.70
2721;DHT22;1368;49.484;11.112;2023-07-20T10:27:47;34.40;49.00
2721;DHT22;1368;49.484;11.112;2023-07-20T10:30:13;34.10;50.60
2721;DHT22;1368;49.484;11.112;2023-07-20T10:32:40;34.00;49.70
2721;DHT22;1368;49.484;11.112;2023-07-20T10:35:16;34.20;50.20
2721;DHT22;1368;49.484;11.112;2023-07-20T10:37:47;34.40;49.00
2721;DHT22;1368;49.484;11.112;2023-07-20T10:40:30;34.70;48.60
2721;DHT22;1368;49.484;11.112;2023-07-20T10:42:57;34.60;47.30
2721;DHT22;1368;49.484;11.112;2023-07-20T10:45:53;34.80;49.30
2721;DHT22;1368;49.484;11.112;2023-07-20T10:48:25;34.30;46.90
2721;DHT22;1368;49.484;11.112;2023-07-20T10:51:10;33.90;48.70
2721;DHT22;1368;49.484;11.112;2023-07-20T10:53:36;33.90;49.00
2721;DHT22;1368;49.484;11.112;2023-07-20T10:56:15;33.80;49.20
2721;DHT22;1368;49.484;11.112;2023-07-20T10:58:44;33.70;48.80
2721;DHT22;1368;49.484;11.112;2023-07-20T11:01:13;33.60;47.20
2721;DHT22;1368;49.484;11.112;2023-07-20T11:03:39;33.10;47.10
2721;DHT22;1368;49.484;11.112;2023-07-20T11:09:03;31.90;49.60
2721;DHT22;1368;49.484;11.112;2023-07-20T11:11:34;32.40;48.30
2721;DHT22;1368;49.484;11.112;2023-07-20T11:14:10;32.40;48.30
2721;DHT22;1368;49.484;11.112;2023-07-20T11:16:46;32.80;48.70
2721;DHT22;1368;49.484;11.112;2023-07-20T11:19:22;33.10;48.60
2721;DHT22;1368;49.484;11.112;2023-07-20T11:21:56;32.80;47.50
2721;DHT22;1368;49.484;11.112;2023-07-20T11:24:22;33.10;48.20
2721;DHT22;1368;49.484;11.112;2023-07-20T11:26:53;32.70;47.40
2721;DHT22;1368;49.484;11.112;2023-07-20T11:29:20;32.80;48.00
2721;DHT22;1368;49.484;11.112;2023-07-20T11:31:47;33.00;47.20
2721;DHT22;1368;49.484;11.112;2023-07-20T11:34:17;33.30;46.60
2721;DHT22;1368;49.484;11.112;2023-07-20T11:36:47;33.30;46.90
2721;DHT22;1368;49.484;11.112;2023-07-20T11:39:16;33.40;47.40
2721;DHT22;1368;49.484;11.112;2023-07-20T11:41:50;33.10;46.90
2721;DHT22;1368;49.484;11.112;2023-07-20T11:44:17;32.90;47.80
2721;DHT22;1368;49.484;11.112;2023-07-20T11:46:43;32.90;47.70
2721;DHT22;1368;49.484;11.112;2023-07-20T11:49:10;32.80;47.80
2721;DHT22;1368;49.484;11.112;2023-07-20T11:51:36;32.90;49.70
2721;DHT22;1368;49.484;11.112;2023-07-20T11:54:03;32.50;48.10
2721;DHT22;1368;49.484;11.112;2023-07-20T11:56:29;32.00;48.90
2721;DHT22;1368;49.484;11.112;2023-07-20T11:58:57;31.80;48.70
2721;DHT22;1368;49.484;11.112;2023-07-20T12:01:25;31.90;48.60
2721;DHT22;1368;49.484;11.112;2023-07-20T12:03:56;31.50;47.20
2721;DHT22;1368;49.484;11.112;2023-07-20T12:06:26;31.10;47.00
2721;DHT22;1368;49.484;11.112;2023-07-20T12:08:55;30.90;45.70
2721;DHT22;1368;49.484;11.112;2023-07-20T12:11:37;30.90;47.50
2721;DHT22;1368;49.484;11.112;2023-07-20T12:14:04;30.90;48.10
2721;DHT22;1368;49.484;11.112;2023-07-20T12:16:31;31.10;47.00
2721;DHT22;1368;49.484;11.112;2023-07-20T12:19:04;31.30;46.60
2721;DHT22;1368;49.484;11.112;2023-07-20T12:21:31;31.40;44.80
2721;DHT22;1368;49.484;11.112;2023-07-20T12:23:58;31.40;44.80
2721;DHT22;1368;49.484;11.112;2023-07-20T12:26:24;31.60;46.70
2721;DHT22;1368;49.484;11.112;2023-07-20T12:28:51;31.50;47.50
2721;DHT22;1368;49.484;11.112;2023-07-20T12:31:16;31.40;46.80
2721;DHT22;1368;49.484;11.112;2023-07-20T12:33:42;31.30;45.20
2721;DHT22;1368;49.484;11.112;2023-07-20T12:36:09;31.20;46.60
2721;DHT22;1368;49.484;11.112;2023-07-20T12:38:35;31.40;47.20
2721;DHT22;1368;49.484;11.112;2023-07-20T12:41:03;31.60;47.00
2721;DHT22;1368;49.484;11.112;2023-07-20T12:43:29;32.00;47.00
2721;DHT22;1368;49.484;11.112;2023-07-20T12:45:56;32.10;46.10
2721;DHT22;1368;49.484;11.112;2023-07-20T12:48:21;31.50;45.70
2721;DHT22;1368;49.484;11.112;2023-07-20T12:50:47;31.10;47.50
2721;DHT22;1368;49.484;11.112;2023-07-20T12:53:13;30.60;46.90
2721;DHT22;1368;49.484;11.112;2023-07-20T12:55:39;30.40;47.90
2721;DHT22;1368;49.484;11.112;2023-07-20T12:58:06;30.20;49.60
2721;DHT22;1368;49.484;11.112;2023-07-20T13:00:32;30.10;49.80
2721;DHT22;1368;49.484;11.112;2023-07-20T13:02:57;30.10;50.00
2721;DHT22;1368;49.484;11.112;2023-07-20T13:05:23;29.70;49.20
2721;DHT22;1368;49.484;11.112;2023-07-20T13:07:49;29.60;50.10
2721;DHT22;1368;49.484;11.112;2023-07-20T13:10:14;29.70;50.90
2721;DHT22;1368;49.484;11.112;2023-07-20T13:12:40;29.90;49.20
2721;DHT22;1368;49.484;11.112;2023-07-20T13:15:07;30.00;50.50
2721;DHT22;1368;49.484;11.112;2023-07-20T13:17:37;30.10;49.60
2721;DHT22;1368;49.484;11.112;2023-07-20T13:20:04;30.40;51.00
2721;DHT22;1368;49.484;11.112;2023-07-20T13:22:31;30.40;48.10
2721;DHT22;1368;49.484;11.112;2023-07-20T13:24:57;30.60;48.10
2721;DHT22;1368;49.484;11.112;2023-07-20T13:27:22;30.50;48.40
2721;DHT22;1368;49.484;11.112;2023-07-20T13:29:48;30.50;49.70
2721;DHT22;1368;49.484;11.112;2023-07-20T13:32:14;30.20;48.80
2721;DHT22;1368;49.484;11.112;2023-07-20T13:34:40;29.70;47.70
2721;DHT22;1368;49.484;11.112;2023-07-20T13:37:06;29.60;48.80
2721;DHT22;1368;49.484;11.112;2023-07-20T13:39:32;29.90;50.30
2721;DHT22;1368;49.484;11.112;2023-07-20T13:41:58;30.10;48.90
2721;DHT22;1368;49.484;11.112;2023-07-20T13:44:23;30.20;47.20
2721;DHT22;1368;49.484;11.112;2023-07-20T13:46:49;30.10;47.70
2721;DHT22;1368;49.484;11.112;2023-07-20T13:49:15;29.40;47.10
2721;DHT22;1368;49.484;11.112;2023-07-20T13:51:44;29.40;48.20
2721;DHT22;1368;49.484;11.112;2023-07-20T13:54:10;29.40;48.50
2721;DHT22;1368;49.484;11.112;2023-07-20T13:56:35;29.50;48.90
2721;DHT22;1368;49.484;11.112;2023-07-20T13:59:01;29.70;48.70
2721;DHT22;1368;49.484;11.112;2023-07-20T14:01:27;29.90;48.90
2721;DHT22;1368;49.484;11.112;2023-07-20T14:03:54;30.00;48.30
2721;DHT22;1368;49.484;11.112;2023-07-20T14:06:19;30.20;48.30
2721;DHT22;1368;49.484;11.112;2023-07-20T14:08:45;30.20;47.20
2721;DHT22;1368;49.484;11.112;2023-07-20T14:11:12;30.40;46.90
2721;DHT22;1368;49.484;11.112;2023-07-20T14:13:38;30.20;48.00
2721;DHT22;1368;49.484;11.112;2023-07-20T14:16:04;30.40;46.10
2721;DHT22;1368;49.484;11.112;2023-07-20T14:18:30;30.40;46.70
2721;DHT22;1368;49.484;11.112;2023-07-20T14:20:55;30.00;47.00
2721;DHT22;1368;49.484;11.112;2023-07-20T14:23:21;29.80;48.30
2721;DHT22;1368;49.484;11.112;2023-07-20T14:25:48;29.60;47.90
2721;DHT22;1368;49.484;11.112;2023-07-20T14:28:14;29.80;47.90
2721;DHT22;1368;49.484;11.112;2023-07-20T14:30:39;30.00;46.80
2721;DHT22;1368;49.484;11.112;2023-07-20T14:33:05;29.60;47.10
2721;DHT22;1368;49.484;11.112;2023-07-20T14:35:31;29.10;47.70
2721;DHT22;1368;49.484;11.112;2023-07-20T14:37:56;28.90;48.80
2721;DHT22;1368;49.484;11.112;2023-07-20T14:40:22;29.10;48.20
2721;DHT22;1368;49.484;11.112;2023-07-20T14:42:47;29.00;47.50
2721;DHT22;1368;49.484;11.112;2023-07-20T14:45:13;29.00;47.70
2721;DHT22;1368;49.484;11.112;2023-07-20T14:47:39;29.10;47.30
2721;DHT22;1368;49.484;11.112;2023-07-20T14:50:06;28.90;47.80
2721;DHT22;1368;49.484;11.112;2023-07-20T14:52:31;28.60;48.60
2721;DHT22;1368;49.484;11.112;2023-07-20T14:54:57;28.60;48.80
2721;DHT22;1368;49.484;11.112;2023-07-20T14:57:23;28.60;48.80
2721;DHT22;1368;49.484;11.112;2023-07-20T14:59:51;28.70;48.50
2721;DHT22;1368;49.484;11.112;2023-07-20T15:02:18;28.80;48.10
2721;DHT22;1368;49.484;11.112;2023-07-20T15:04:50;28.70;48.50
2721;DHT22;1368;49.484;11.112;2023-07-20T15:07:19;28.80;47.90
2721;DHT22;1368;49.484;11.112;2023-07-20T15:09:46;28.60;48.10
2721;DHT22;1368;49.484;11.112;2023-07-20T15:12:12;28.70;48.50
2721;DHT22;1368;49.484;11.112;2023-07-20T15:14:41;28.90;48.00
2721;DHT22;1368;49.484;11.112;2023-07-20T15:17:09;28.80;47.70
2721;DHT22;1368;49.484;11.112;2023-07-20T15:19:34;28.60;49.90
2721;DHT22;1368;49.484;11.112;2023-07-20T15:22:04;28.40;48.40
2721;DHT22;1368;49.484;11.112;2023-07-20T15:24:30;28.10;49.30
2721;DHT22;1368;49.484;11.112;2023-07-20T15:26:55;28.00;49.20
2721;DHT22;1368;49.484;11.112;2023-07-20T15:29:23;28.00;49.20
2721;DHT22;1368;49.484;11.112;2023-07-20T15:31:48;28.00;49.00
2721;DHT22;1368;49.484;11.112;2023-07-20T15:34:14;28.20;48.80
2721;DHT22;1368;49.484;11.112;2023-07-20T15:36:41;28.20;49.40
2721;DHT22;1368;49.484;11.112;2023-07-20T15:39:07;27.80;50.70
2721;DHT22;1368;49.484;11.112;2023-07-20T15:41:33;27.50;50.50
2721;DHT22;1368;49.484;11.112;2023-07-20T15:43:59;27.60;50.60
2721;DHT22;1368;49.484;11.112;2023-07-20T15:46:44;27.60;50.30
2721;DHT22;1368;49.484;11.112;2023-07-20T15:49:10;27.50;51.00
2721;DHT22;1368;49.484;11.112;2023-07-20T15:51:37;27.60;51.90